sensor_id;sensor_type;location;lat;lon;timestamp;P1;durP1;ratioP1;P2;durP2;ratioP2
4616;SDS011;2321;42.704;23.384;2023-08-01T00:01:09;1102.57;;;828.13;;
4616;SDS011;2321;42.704;23.384;2023-08-01T00:03:36;1085.63;;;776.53;;
4616;SDS011;2321;42.704;23.384;2023-08-01T00:06:04;1084.50;;;772.30;;
4616;SDS011;2321;42.704;23.384;2023-08-01T00:08:31;1104.70;;;830.67;;
4616;SDS011;2321;42.704;23.384;2023-08-01T00:10:58;1083.87;;;759.40;;
4616;SDS011;2321;42.704;23.384;2023-08-01T00:13:25;1149.57;;;938.47;;
4616;SDS011;2321;42.704;23.384;2023-08-01T00:15:52;1116.90;;;838.13;;
4616;SDS011;2321;42.704;23.384;2023-08-01T00:18:19;1097.53;;;804.70;;
4616;SDS011;2321;42.704;23.384;2023-08-01T00:20:45;1104.13;;;811.57;;
4616;SDS011;2321;42.704;23.384;2023-08-01T00:23:14;1097.30;;;812.40;;
4616;SDS011;2321;42.704;23.384;2023-08-01T00:25:40;1086.37;;;786.73;;
4616;SDS011;2321;42.704;23.384;2023-08-01T00:28:07;1099.03;;;823.43;;
4616;SDS011;2321;42.704;23.384;2023-08-01T00:30:34;1092.43;;;798.13;;
4616;SDS011;2321;42.704;23.384;2023-08-01T00:33:01;1126.73;;;899.50;;
4616;SDS011;2321;42.704;23.384;2023-08-01T00:35:28;1100.53;;;793.30;;
4616;SDS011;2321;42.704;23.384;2023-08-01T00:37:55;1092.67;;;757.03;;
4616;SDS011;2321;42.704;23.384;2023-08-01T00:40:23;1110.30;;;833.47;;
4616;SDS011;2321;42.704;23.384;2023-08-01T00:42:50;1101.87;;;807.43;;
4616;SDS011;2321;42.704;23.384;2023-08-01T00:45:20;1104.57;;;810.50;;
4616;SDS011;2321;42.704;23.384;2023-08-01T00:47:49;985.00;;;383.30;;
4616;SDS011;2321;42.704;23.384;2023-08-01T00:50:16;1180.03;;;893.70;;
4616;SDS011;2321;42.704;23.384;2023-08-01T00:52:45;1013.77;;;379.23;;
4616;SDS011;2321;42.704;23.384;2023-08-01T00:55:12;1124.87;;;768.43;;
4616;SDS011;2321;42.704;23.384;2023-08-01T00:57:42;1087.10;;;742.90;;
4616;SDS011;2321;42.704;23.384;2023-08-01T01:00:09;1116.47;;;847.77;;
4616;SDS011;2321;42.704;23.384;2023-08-01T01:02:37;1062.83;;;444.63;;
4616;SDS011;2321;42.704;23.384;2023-08-01T01:05:04;1091.23;;;664.47;;
4616;SDS011;2321;42.704;23.384;2023-08-01T01:07:31;1159.83;;;927.53;;
4616;SDS011;2321;42.704;23.384;2023-08-01T01:09:59;1189.13;;;957.90;;
4616;SDS011;2321;42.704;23.384;2023-08-01T01:12:26;1169.80;;;797.20;;
4616;SDS011;2321;42.704;23.384;2023-08-01T01:14:54;1174.67;;;836.80;;
4616;SDS011;2321;42.704;23.384;2023-08-01T01:17:21;1118.70;;;778.27;;
4616;SDS011;2321;42.704;23.384;2023-08-01T01:19:48;1151.13;;;890.17;;
4616;SDS011;2321;42.704;23.384;2023-08-01T01:22:16;1154.83;;;908.73;;
4616;SDS011;2321;42.704;23.384;2023-08-01T01:24:44;1141.10;;;866.90;;
4616;SDS011;2321;42.704;23.384;2023-08-01T01:27:12;1176.03;;;938.07;;
4616;SDS011;2321;42.704;23.384;2023-08-01T01:29:39;1134.27;;;827.70;;
4616;SDS011;2321;42.704;23.384;2023-08-01T01:32:08;1100.50;;;724.53;;
4616;SDS011;2321;42.704;23.384;2023-08-01T01:34:36;1137.30;;;857.77;;
4616;SDS011;2321;42.704;23.384;2023-08-01T01:37:03;1102.60;;;686.33;;
4616;SDS011;2321;42.704;23.384;2023-08-01T01:39:31;1135.90;;;840.10;;
4616;SDS011;2321;42.704;23.384;2023-08-01T01:41:58;1170.40;;;902.93;;
4616;SDS011;2321;42.704;23.384;2023-08-01T01:44:25;945.50;;;302.60;;
4616;SDS011;2321;42.704;23.384;2023-08-01T01:46:53;1056.20;;;357.33;;
4616;SDS011;2321;42.704;23.384;2023-08-01T01:49:19;1109.47;;;770.00;;
4616;SDS011;2321;42.704;23.384;2023-08-01T01:51:46;1097.87;;;753.47;;
4616;SDS011;2321;42.704;23.384;2023-08-01T01:54:13;1099.97;;;723.10;;
4616;SDS011;2321;42.704;23.384;2023-08-01T01:56:41;1170.17;;;823.50;;
4616;SDS011;2321;42.704;23.384;2023-08-01T01:59:08;1158.37;;;705.97;;
4616;SDS011;2321;42.704;23.384;2023-08-01T02:01:35;1125.50;;;809.87;;
4616;SDS011;2321;42.704;23.384;2023-08-01T02:04:02;1127.40;;;835.67;;
4616;SDS011;2321;42.704;23.384;2023-08-01T02:06:29;1118.73;;;693.90;;
4616;SDS011;2321;42.704;23.384;2023-08-01T02:08:56;1111.10;;;460.23;;
4616;SDS011;2321;42.704;23.384;2023-08-01T02:11:23;1136.07;;;865.43;;
4616;SDS011;2321;42.704;23.384;2023-08-01T02:13:51;1185.90;;;962.47;;
4616;SDS011;2321;42.704;23.384;2023-08-01T02:16:19;1121.83;;;768.27;;
4616;SDS011;2321;42.704;23.384;2023-08-01T02:18:46;1128.27;;;819.00;;
4616;SDS011;2321;42.704;23.384;2023-08-01T02:21:12;1082.63;;;704.33;;
4616;SDS011;2321;42.704;23.384;2023-08-01T02:23:39;1092.23;;;733.30;;
4616;SDS011;2321;42.704;23.384;2023-08-01T02:26:06;1087.10;;;735.80;;
4616;SDS011;2321;42.704;23.384;2023-08-01T02:28:33;1130.07;;;780.13;;
4616;SDS011;2321;42.704;23.384;2023-08-01T02:31:01;1090.87;;;750.70;;
4616;SDS011;2321;42.704;23.384;2023-08-01T02:33:28;1101.13;;;782.17;;
4616;SDS011;2321;42.704;23.384;2023-08-01T02:35:55;1089.17;;;748.17;;
4616;SDS011;2321;42.704;23.384;2023-08-01T02:38:22;1106.23;;;766.70;;
4616;SDS011;2321;42.704;23.384;2023-08-01T02:40:49;1126.83;;;847.07;;
4616;SDS011;2321;42.704;23.384;2023-08-01T02:43:16;1085.33;;;725.57;;
4616;SDS011;2321;42.704;23.384;2023-08-01T02:45:43;1103.43;;;766.80;;
4616;SDS011;2321;42.704;23.384;2023-08-01T02:48:11;1081.17;;;711.87;;
4616;SDS011;2321;42.704;23.384;2023-08-01T02:50:38;1124.07;;;832.80;;
4616;SDS011;2321;42.704;23.384;2023-08-01T02:53:05;1168.77;;;915.37;;
4616;SDS011;2321;42.704;23.384;2023-08-01T02:55:32;1103.37;;;766.90;;
4616;SDS011;2321;42.704;23.384;2023-08-01T02:57:59;1102.37;;;769.50;;
4616;SDS011;2321;42.704;23.384;2023-08-01T03:00:26;1087.20;;;722.57;;
4616;SDS011;2321;42.704;23.384;2023-08-01T03:02:52;1105.70;;;774.57;;
4616;SDS011;2321;42.704;23.384;2023-08-01T03:05:21;1101.83;;;766.53;;
4616;SDS011;2321;42.704;23.384;2023-08-01T03:07:47;1103.50;;;770.37;;
4616;SDS011;2321;42.704;23.384;2023-08-01T03:10:14;1109.77;;;686.10;;
4616;SDS011;2321;42.704;23.384;2023-08-01T03:12:41;1103.93;;;662.20;;
4616;SDS011;2321;42.704;23.384;2023-08-01T03:15:08;1105.50;;;735.20;;
4616;SDS011;2321;42.704;23.384;2023-08-01T03:17:36;1124.10;;;769.17;;
4616;SDS011;2321;42.704;23.384;2023-08-01T03:20:03;1100.77;;;735.73;;
4616;SDS011;2321;42.704;23.384;2023-08-01T03:22:31;1113.30;;;768.40;;
4616;SDS011;2321;42.704;23.384;2023-08-01T03:24:58;1096.63;;;706.90;;
4616;SDS011;2321;42.704;23.384;2023-08-01T03:27:25;1101.40;;;737.47;;
4616;SDS011;2321;42.704;23.384;2023-08-01T03:29:52;1153.20;;;761.53;;
4616;SDS011;2321;42.704;23.384;2023-08-01T03:32:19;1102.53;;;753.73;;
4616;SDS011;2321;42.704;23.384;2023-08-01T03:34:46;1140.80;;;861.50;;
4616;SDS011;2321;42.704;23.384;2023-08-01T03:37:13;1091.33;;;702.93;;
4616;SDS011;2321;42.704;23.384;2023-08-01T03:39:41;1105.87;;;738.97;;
4616;SDS011;2321;42.704;23.384;2023-08-01T03:42:08;1115.60;;;779.10;;
4616;SDS011;2321;42.704;23.384;2023-08-01T03:44:35;1140.33;;;700.20;;
4616;SDS011;2321;42.704;23.384;2023-08-01T03:47:02;1071.17;;;405.07;;
4616;SDS011;2321;42.704;23.384;2023-08-01T03:49:29;1025.60;;;343.37;;
4616;SDS011;2321;42.704;23.384;2023-08-01T03:51:56;830.00;;;248.40;;
4616;SDS011;2321;42.704;23.384;2023-08-01T03:54:23;776.87;;;245.07;;
4616;SDS011;2321;42.704;23.384;2023-08-01T03:56:51;723.27;;;197.70;;
4616;SDS011;2321;42.704;23.384;2023-08-01T03:59:18;738.13;;;217.73;;
4616;SDS011;2321;42.704;23.384;2023-08-01T04:01:44;781.80;;;231.93;;
4616;SDS011;2321;42.704;23.384;2023-08-01T04:04:11;799.67;;;222.10;;
4616;SDS011;2321;42.704;23.384;2023-08-01T04:06:38;814.33;;;238.87;;
4616;SDS011;2321;42.704;23.384;2023-08-01T04:09:05;782.47;;;239.70;;
4616;SDS011;2321;42.704;23.384;2023-08-01T04:11:32;738.73;;;201.87;;
4616;SDS011;2321;42.704;23.384;2023-08-01T04:14:01;604.77;;;159.70;;
4616;SDS011;2321;42.704;23.384;2023-08-01T04:16:27;688.40;;;185.17;;
4616;SDS011;2321;42.704;23.384;2023-08-01T04:18:56;707.00;;;209.37;;
4616;SDS011;2321;42.704;23.384;2023-08-01T04:21:23;729.30;;;219.67;;
4616;SDS011;2321;42.704;23.384;2023-08-01T04:23:50;689.80;;;198.13;;
4616;SDS011;2321;42.704;23.384;2023-08-01T04:26:17;561.77;;;160.43;;
4616;SDS011;2321;42.704;23.384;2023-08-01T04:28:45;702.80;;;196.20;;
4616;SDS011;2321;42.704;23.384;2023-08-01T04:31:14;717.87;;;209.40;;
4616;SDS011;2321;42.704;23.384;2023-08-01T04:33:40;724.93;;;214.73;;
4616;SDS011;2321;42.704;23.384;2023-08-01T04:36:07;614.03;;;181.43;;
4616;SDS011;2321;42.704;23.384;2023-08-01T04:38:34;721.40;;;202.43;;
4616;SDS011;2321;42.704;23.384;2023-08-01T04:41:01;735.03;;;227.63;;
4616;SDS011;2321;42.704;23.384;2023-08-01T04:43:28;561.57;;;150.40;;
4616;SDS011;2321;42.704;23.384;2023-08-01T04:45:55;577.47;;;152.20;;
4616;SDS011;2321;42.704;23.384;2023-08-01T04:48:23;734.47;;;231.00;;
4616;SDS011;2321;42.704;23.384;2023-08-01T04:50:50;730.43;;;223.60;;
4616;SDS011;2321;42.704;23.384;2023-08-01T04:53:17;218.73;;;54.97;;
4616;SDS011;2321;42.704;23.384;2023-08-01T04:55:44;709.37;;;201.50;;
4616;SDS011;2321;42.704;23.384;2023-08-01T04:58:11;707.93;;;197.93;;
4616;SDS011;2321;42.704;23.384;2023-08-01T05:00:38;720.47;;;208.50;;
4616;SDS011;2321;42.704;23.384;2023-08-01T05:03:07;735.60;;;225.30;;
4616;SDS011;2321;42.704;23.384;2023-08-01T05:05:36;637.67;;;192.87;;
4616;SDS011;2321;42.704;23.384;2023-08-01T05:08:03;715.10;;;202.27;;
4616;SDS011;2321;42.704;23.384;2023-08-01T05:10:30;697.83;;;200.67;;
4616;SDS011;2321;42.704;23.384;2023-08-01T05:12:57;603.23;;;176.07;;
4616;SDS011;2321;42.704;23.384;2023-08-01T05:15:24;681.80;;;184.73;;
4616;SDS011;2321;42.704;23.384;2023-08-01T05:17:52;615.33;;;191.87;;
4616;SDS011;2321;42.704;23.384;2023-08-01T05:20:19;611.30;;;180.03;;
4616;SDS011;2321;42.704;23.384;2023-08-01T05:22:47;734.40;;;231.13;;
4616;SDS011;2321;42.704;23.384;2023-08-01T05:25:14;733.37;;;226.97;;
4616;SDS011;2321;42.704;23.384;2023-08-01T05:27:41;707.60;;;204.33;;
4616;SDS011;2321;42.704;23.384;2023-08-01T05:30:10;757.33;;;216.03;;
4616;SDS011;2321;42.704;23.384;2023-08-01T05:32:37;728.73;;;205.57;;
4616;SDS011;2321;42.704;23.384;2023-08-01T05:35:05;698.00;;;196.40;;
4616;SDS011;2321;42.704;23.384;2023-08-01T05:37:33;704.47;;;199.93;;
4616;SDS011;2321;42.704;23.384;2023-08-01T05:40:01;705.73;;;198.47;;
4616;SDS011;2321;42.704;23.384;2023-08-01T05:42:29;713.67;;;204.23;;
4616;SDS011;2321;42.704;23.384;2023-08-01T05:44:56;734.43;;;225.60;;
4616;SDS011;2321;42.704;23.384;2023-08-01T05:47:22;722.60;;;215.30;;
4616;SDS011;2321;42.704;23.384;2023-08-01T05:49:49;712.63;;;204.63;;
4616;SDS011;2321;42.704;23.384;2023-08-01T05:52:16;704.87;;;199.67;;
4616;SDS011;2321;42.704;23.384;2023-08-01T05:54:43;707.20;;;204.20;;
4616;SDS011;2321;42.704;23.384;2023-08-01T05:57:11;214.20;;;53.97;;
4616;SDS011;2321;42.704;23.384;2023-08-01T05:59:38;240.13;;;61.47;;
4616;SDS011;2321;42.704;23.384;2023-08-01T06:02:05;703.83;;;196.37;;
4616;SDS011;2321;42.704;23.384;2023-08-01T06:04:32;701.50;;;199.33;;
4616;SDS011;2321;42.704;23.384;2023-08-01T06:06:59;724.77;;;216.73;;
4616;SDS011;2321;42.704;23.384;2023-08-01T06:09:26;709.17;;;199.87;;
4616;SDS011;2321;42.704;23.384;2023-08-01T06:11:53;247.93;;;66.87;;
4616;SDS011;2321;42.704;23.384;2023-08-01T06:14:21;256.17;;;68.00;;
4616;SDS011;2321;42.704;23.384;2023-08-01T06:16:48;257.07;;;68.10;;
4616;SDS011;2321;42.704;23.384;2023-08-01T06:19:15;711.43;;;212.97;;
4616;SDS011;2321;42.704;23.384;2023-08-01T06:21:42;708.47;;;211.97;;
4616;SDS011;2321;42.704;23.384;2023-08-01T06:24:08;97.33;;;37.40;;
4616;SDS011;2321;42.704;23.384;2023-08-01T06:26:35;701.20;;;197.07;;
4616;SDS011;2321;42.704;23.384;2023-08-01T06:29:02;577.63;;;159.80;;
4616;SDS011;2321;42.704;23.384;2023-08-01T06:31:31;717.43;;;212.37;;
4616;SDS011;2321;42.704;23.384;2023-08-01T06:33:57;708.13;;;206.60;;
4616;SDS011;2321;42.704;23.384;2023-08-01T06:36:24;731.07;;;224.50;;
4616;SDS011;2321;42.704;23.384;2023-08-01T06:38:51;705.03;;;193.33;;
4616;SDS011;2321;42.704;23.384;2023-08-01T06:41:18;568.80;;;156.17;;
4616;SDS011;2321;42.704;23.384;2023-08-01T06:43:45;218.27;;;55.10;;
4616;SDS011;2321;42.704;23.384;2023-08-01T06:46:12;700.40;;;203.23;;
4616;SDS011;2321;42.704;23.384;2023-08-01T06:48:40;632.47;;;181.53;;
4616;SDS011;2321;42.704;23.384;2023-08-01T06:51:07;237.30;;;61.37;;
4616;SDS011;2321;42.704;23.384;2023-08-01T06:53:34;246.27;;;65.40;;
4616;SDS011;2321;42.704;23.384;2023-08-01T06:56:00;637.93;;;187.80;;
4616;SDS011;2321;42.704;23.384;2023-08-01T06:58:27;563.70;;;144.60;;
4616;SDS011;2321;42.704;23.384;2023-08-01T07:00:54;251.10;;;71.40;;
4616;SDS011;2321;42.704;23.384;2023-08-01T07:03:21;251.50;;;68.60;;
4616;SDS011;2321;42.704;23.384;2023-08-01T07:05:49;591.50;;;172.80;;
4616;SDS011;2321;42.704;23.384;2023-08-01T07:08:16;582.13;;;166.30;;
4616;SDS011;2321;42.704;23.384;2023-08-01T07:10:43;22.73;;;9.80;;
4616;SDS011;2321;42.704;23.384;2023-08-01T07:13:12;241.20;;;61.17;;
4616;SDS011;2321;42.704;23.384;2023-08-01T07:15:40;546.80;;;146.30;;
4616;SDS011;2321;42.704;23.384;2023-08-01T07:18:06;581.93;;;154.80;;
4616;SDS011;2321;42.704;23.384;2023-08-01T07:20:33;544.57;;;144.63;;
4616;SDS011;2321;42.704;23.384;2023-08-01T07:23:01;260.77;;;75.10;;
4616;SDS011;2321;42.704;23.384;2023-08-01T07:25:28;256.97;;;75.17;;
4616;SDS011;2321;42.704;23.384;2023-08-01T07:27:55;495.10;;;141.07;;
4616;SDS011;2321;42.704;23.384;2023-08-01T07:30:22;552.53;;;151.90;;
4616;SDS011;2321;42.704;23.384;2023-08-01T07:32:49;719.90;;;219.20;;
4616;SDS011;2321;42.704;23.384;2023-08-01T07:35:16;670.90;;;181.30;;
4616;SDS011;2321;42.704;23.384;2023-08-01T07:37:43;67.17;;;20.87;;
4616;SDS011;2321;42.704;23.384;2023-08-01T07:40:12;68.93;;;21.07;;
4616;SDS011;2321;42.704;23.384;2023-08-01T07:42:38;234.87;;;66.93;;
4616;SDS011;2321;42.704;23.384;2023-08-01T07:45:06;215.13;;;59.87;;
4616;SDS011;2321;42.704;23.384;2023-08-01T07:47:33;251.83;;;74.07;;
4616;SDS011;2321;42.704;23.384;2023-08-01T07:50:00;254.57;;;84.37;;
4616;SDS011;2321;42.704;23.384;2023-08-01T07:52:27;233.23;;;61.63;;
4616;SDS011;2321;42.704;23.384;2023-08-01T07:54:54;515.50;;;139.47;;
4616;SDS011;2321;42.704;23.384;2023-08-01T07:57:24;22.10;;;7.60;;
4616;SDS011;2321;42.704;23.384;2023-08-01T07:59:50;688.57;;;210.43;;
4616;SDS011;2321;42.704;23.384;2023-08-01T08:02:17;697.50;;;205.90;;
4616;SDS011;2321;42.704;23.384;2023-08-01T08:04:44;251.07;;;75.47;;
4616;SDS011;2321;42.704;23.384;2023-08-01T08:07:11;657.47;;;182.50;;
4616;SDS011;2321;42.704;23.384;2023-08-01T08:09:38;477.27;;;148.20;;
4616;SDS011;2321;42.704;23.384;2023-08-01T08:12:05;78.03;;;23.77;;
4616;SDS011;2321;42.704;23.384;2023-08-01T08:14:34;240.30;;;63.80;;
4616;SDS011;2321;42.704;23.384;2023-08-01T08:17:02;498.97;;;151.33;;
4616;SDS011;2321;42.704;23.384;2023-08-01T08:19:29;249.80;;;77.60;;
4616;SDS011;2321;42.704;23.384;2023-08-01T08:21:59;530.37;;;143.93;;
4616;SDS011;2321;42.704;23.384;2023-08-01T08:24:25;225.87;;;58.87;;
4616;SDS011;2321;42.704;23.384;2023-08-01T08:26:52;436.80;;;114.60;;
4616;SDS011;2321;42.704;23.384;2023-08-01T08:29:19;553.30;;;162.17;;
4616;SDS011;2321;42.704;23.384;2023-08-01T08:31:47;572.67;;;171.80;;
4616;SDS011;2321;42.704;23.384;2023-08-01T08:34:14;231.20;;;70.47;;
4616;SDS011;2321;42.704;23.384;2023-08-01T08:36:41;222.60;;;67.97;;
4616;SDS011;2321;42.704;23.384;2023-08-01T08:39:08;232.80;;;74.33;;
4616;SDS011;2321;42.704;23.384;2023-08-01T08:41:37;227.53;;;61.83;;
4616;SDS011;2321;42.704;23.384;2023-08-01T08:44:07;20.33;;;8.20;;
4616;SDS011;2321;42.704;23.384;2023-08-01T08:46:36;669.77;;;208.40;;
4616;SDS011;2321;42.704;23.384;2023-08-01T08:49:09;19.10;;;6.80;;
4616;SDS011;2321;42.704;23.384;2023-08-01T08:51:36;675.60;;;216.67;;
4616;SDS011;2321;42.704;23.384;2023-08-01T08:54:04;637.40;;;190.13;;
4616;SDS011;2321;42.704;23.384;2023-08-01T08:56:31;218.03;;;61.07;;
4616;SDS011;2321;42.704;23.384;2023-08-01T08:59:00;654.10;;;209.70;;
4616;SDS011;2321;42.704;23.384;2023-08-01T09:01:28;645.40;;;241.10;;
4616;SDS011;2321;42.704;23.384;2023-08-01T09:03:56;555.13;;;161.37;;
4616;SDS011;2321;42.704;23.384;2023-08-01T09:06:28;726.63;;;254.10;;
4616;SDS011;2321;42.704;23.384;2023-08-01T09:08:59;708.73;;;236.83;;
4616;SDS011;2321;42.704;23.384;2023-08-01T09:11:35;484.67;;;149.93;;
4616;SDS011;2321;42.704;23.384;2023-08-01T09:14:14;439.23;;;129.83;;
4616;SDS011;2321;42.704;23.384;2023-08-01T09:16:41;753.80;;;307.40;;
4616;SDS011;2321;42.704;23.384;2023-08-01T09:19:09;746.93;;;312.93;;
4616;SDS011;2321;42.704;23.384;2023-08-01T09:21:39;748.33;;;322.13;;
4616;SDS011;2321;42.704;23.384;2023-08-01T09:24:09;704.53;;;238.27;;
4616;SDS011;2321;42.704;23.384;2023-08-01T09:26:37;739.47;;;288.67;;
4616;SDS011;2321;42.704;23.384;2023-08-01T09:29:04;427.27;;;115.37;;
4616;SDS011;2321;42.704;23.384;2023-08-01T09:31:37;685.00;;;204.67;;
4616;SDS011;2321;42.704;23.384;2023-08-01T09:34:05;690.00;;;216.60;;
4616;SDS011;2321;42.704;23.384;2023-08-01T09:36:45;690.43;;;217.17;;
4616;SDS011;2321;42.704;23.384;2023-08-01T09:39:15;644.00;;;200.80;;
4616;SDS011;2321;42.704;23.384;2023-08-01T09:41:43;235.73;;;72.23;;
4616;SDS011;2321;42.704;23.384;2023-08-01T09:44:10;487.60;;;159.17;;
4616;SDS011;2321;42.704;23.384;2023-08-01T09:46:37;682.37;;;211.77;;
4616;SDS011;2321;42.704;23.384;2023-08-01T09:49:07;588.50;;;178.20;;
4616;SDS011;2321;42.704;23.384;2023-08-01T09:51:45;605.97;;;203.63;;
4616;SDS011;2321;42.704;23.384;2023-08-01T09:54:14;659.73;;;213.13;;
4616;SDS011;2321;42.704;23.384;2023-08-01T09:56:42;14.70;;;7.33;;
4616;SDS011;2321;42.704;23.384;2023-08-01T09:59:11;457.00;;;143.57;;
4616;SDS011;2321;42.704;23.384;2023-08-01T10:01:41;181.20;;;55.73;;
4616;SDS011;2321;42.704;23.384;2023-08-01T10:04:10;23.70;;;16.17;;
4616;SDS011;2321;42.704;23.384;2023-08-01T10:06:38;209.87;;;61.20;;
4616;SDS011;2321;42.704;23.384;2023-08-01T10:09:11;26.07;;;9.03;;
4616;SDS011;2321;42.704;23.384;2023-08-01T10:11:39;214.70;;;69.87;;
4616;SDS011;2321;42.704;23.384;2023-08-01T10:14:07;478.93;;;148.43;;
4616;SDS011;2321;42.704;23.384;2023-08-01T10:16:34;197.03;;;55.20;;
4616;SDS011;2321;42.704;23.384;2023-08-01T10:19:04;217.80;;;65.57;;
4616;SDS011;2321;42.704;23.384;2023-08-01T10:21:32;357.00;;;108.50;;
4616;SDS011;2321;42.704;23.384;2023-08-01T10:24:00;29.13;;;11.13;;
4616;SDS011;2321;42.704;23.384;2023-08-01T10:26:30;28.17;;;9.17;;
4616;SDS011;2321;42.704;23.384;2023-08-01T10:28:57;514.50;;;157.00;;
4616;SDS011;2321;42.704;23.384;2023-08-01T10:31:26;15.37;;;6.60;;
4616;SDS011;2321;42.704;23.384;2023-08-01T10:34:02;209.90;;;63.17;;
4616;SDS011;2321;42.704;23.384;2023-08-01T10:36:30;504.07;;;153.30;;
4616;SDS011;2321;42.704;23.384;2023-08-01T10:38:58;482.33;;;152.20;;
4616;SDS011;2321;42.704;23.384;2023-08-01T10:41:28;13.70;;;5.83;;
4616;SDS011;2321;42.704;23.384;2023-08-01T10:44:07;199.23;;;64.83;;
4616;SDS011;2321;42.704;23.384;2023-08-01T10:46:45;194.27;;;58.90;;
4616;SDS011;2321;42.704;23.384;2023-08-01T10:49:13;200.60;;;58.07;;
4616;SDS011;2321;42.704;23.384;2023-08-01T10:51:40;197.07;;;57.90;;
4616;SDS011;2321;42.704;23.384;2023-08-01T10:54:10;216.70;;;70.20;;
4616;SDS011;2321;42.704;23.384;2023-08-01T10:56:44;500.23;;;177.50;;
4616;SDS011;2321;42.704;23.384;2023-08-01T10:59:14;190.07;;;56.83;;
4616;SDS011;2321;42.704;23.384;2023-08-01T11:01:44;504.37;;;165.47;;
4616;SDS011;2321;42.704;23.384;2023-08-01T11:04:16;371.30;;;148.10;;
4616;SDS011;2321;42.704;23.384;2023-08-01T11:06:44;30.23;;;13.33;;
4616;SDS011;2321;42.704;23.384;2023-08-01T11:09:15;13.33;;;7.17;;
4616;SDS011;2321;42.704;23.384;2023-08-01T11:11:43;200.10;;;67.03;;
4616;SDS011;2321;42.704;23.384;2023-08-01T11:14:11;56.37;;;20.20;;
4616;SDS011;2321;42.704;23.384;2023-08-01T11:16:40;192.57;;;60.57;;
4616;SDS011;2321;42.704;23.384;2023-08-01T11:19:17;198.40;;;76.30;;
4616;SDS011;2321;42.704;23.384;2023-08-01T11:21:44;213.00;;;91.90;;
4616;SDS011;2321;42.704;23.384;2023-08-01T11:24:12;191.50;;;61.40;;
4616;SDS011;2321;42.704;23.384;2023-08-01T11:26:40;176.53;;;58.60;;
4616;SDS011;2321;42.704;23.384;2023-08-01T11:29:07;6.17;;;4.87;;
4616;SDS011;2321;42.704;23.384;2023-08-01T11:31:35;460.67;;;138.37;;
4616;SDS011;2321;42.704;23.384;2023-08-01T11:34:04;170.63;;;52.40;;
4616;SDS011;2321;42.704;23.384;2023-08-01T11:36:33;181.63;;;53.40;;
4616;SDS011;2321;42.704;23.384;2023-08-01T11:39:00;23.20;;;9.97;;
4616;SDS011;2321;42.704;23.384;2023-08-01T11:41:28;13.97;;;7.00;;
4616;SDS011;2321;42.704;23.384;2023-08-01T11:43:55;18.27;;;8.53;;
4616;SDS011;2321;42.704;23.384;2023-08-01T11:46:30;185.00;;;57.87;;
4616;SDS011;2321;42.704;23.384;2023-08-01T11:48:58;8.63;;;5.17;;
4616;SDS011;2321;42.704;23.384;2023-08-01T11:51:27;171.73;;;52.23;;
4616;SDS011;2321;42.704;23.384;2023-08-01T11:54:00;61.97;;;21.60;;
4616;SDS011;2321;42.704;23.384;2023-08-01T11:56:28;17.53;;;8.00;;
4616;SDS011;2321;42.704;23.384;2023-08-01T11:58:55;174.97;;;56.17;;
4616;SDS011;2321;42.704;23.384;2023-08-01T12:01:22;186.37;;;57.33;;
4616;SDS011;2321;42.704;23.384;2023-08-01T12:03:49;13.40;;;6.60;;
4616;SDS011;2321;42.704;23.384;2023-08-01T12:06:18;175.30;;;52.17;;
4616;SDS011;2321;42.704;23.384;2023-08-01T12:08:48;7.30;;;5.03;;
4616;SDS011;2321;42.704;23.384;2023-08-01T12:11:21;65.63;;;25.37;;
4616;SDS011;2321;42.704;23.384;2023-08-01T12:13:59;9.93;;;6.30;;
4616;SDS011;2321;42.704;23.384;2023-08-01T12:16:27;11.73;;;6.17;;
4616;SDS011;2321;42.704;23.384;2023-08-01T12:18:54;12.47;;;6.23;;
4616;SDS011;2321;42.704;23.384;2023-08-01T12:21:22;178.53;;;55.33;;
4616;SDS011;2321;42.704;23.384;2023-08-01T12:23:50;6.87;;;4.93;;
4616;SDS011;2321;42.704;23.384;2023-08-01T12:26:17;7.23;;;4.10;;
4616;SDS011;2321;42.704;23.384;2023-08-01T12:28:43;171.40;;;54.37;;
4616;SDS011;2321;42.704;23.384;2023-08-01T12:31:15;178.17;;;56.30;;
4616;SDS011;2321;42.704;23.384;2023-08-01T12:33:42;70.63;;;27.73;;
4616;SDS011;2321;42.704;23.384;2023-08-01T12:36:09;190.67;;;58.23;;
4616;SDS011;2321;42.704;23.384;2023-08-01T12:38:36;493.57;;;161.20;;
4616;SDS011;2321;42.704;23.384;2023-08-01T12:41:03;182.23;;;58.00;;
4616;SDS011;2321;42.704;23.384;2023-08-01T12:43:30;390.23;;;128.73;;
4616;SDS011;2321;42.704;23.384;2023-08-01T12:45:57;187.70;;;62.97;;
4616;SDS011;2321;42.704;23.384;2023-08-01T12:48:24;187.23;;;63.37;;
4616;SDS011;2321;42.704;23.384;2023-08-01T12:50:51;169.07;;;52.67;;
4616;SDS011;2321;42.704;23.384;2023-08-01T12:53:18;172.80;;;54.97;;
4616;SDS011;2321;42.704;23.384;2023-08-01T12:55:45;199.70;;;67.47;;
4616;SDS011;2321;42.704;23.384;2023-08-01T12:58:14;196.30;;;69.13;;
4616;SDS011;2321;42.704;23.384;2023-08-01T13:00:41;19.63;;;8.30;;
4616;SDS011;2321;42.704;23.384;2023-08-01T13:03:09;180.87;;;57.27;;
4616;SDS011;2321;42.704;23.384;2023-08-01T13:05:37;152.93;;;49.73;;
4616;SDS011;2321;42.704;23.384;2023-08-01T13:08:05;508.30;;;172.20;;
4616;SDS011;2321;42.704;23.384;2023-08-01T13:10:32;171.30;;;53.30;;
4616;SDS011;2321;42.704;23.384;2023-08-01T13:13:00;162.73;;;52.27;;
4616;SDS011;2321;42.704;23.384;2023-08-01T13:15:28;9.13;;;6.70;;
4616;SDS011;2321;42.704;23.384;2023-08-01T13:17:56;166.80;;;53.07;;
4616;SDS011;2321;42.704;23.384;2023-08-01T13:20:23;8.03;;;5.13;;
4616;SDS011;2321;42.704;23.384;2023-08-01T13:22:50;8.30;;;5.33;;
4616;SDS011;2321;42.704;23.384;2023-08-01T13:25:18;5.03;;;4.57;;
4616;SDS011;2321;42.704;23.384;2023-08-01T13:27:45;169.80;;;52.00;;
4616;SDS011;2321;42.704;23.384;2023-08-01T13:30:12;57.50;;;23.20;;
4616;SDS011;2321;42.704;23.384;2023-08-01T13:32:40;11.60;;;6.90;;
4616;SDS011;2321;42.704;23.384;2023-08-01T13:35:07;166.90;;;54.73;;
4616;SDS011;2321;42.704;23.384;2023-08-01T13:37:34;384.33;;;128.60;;
4616;SDS011;2321;42.704;23.384;2023-08-01T13:40:01;11.37;;;6.03;;
4616;SDS011;2321;42.704;23.384;2023-08-01T13:42:28;11.50;;;6.67;;
4616;SDS011;2321;42.704;23.384;2023-08-01T13:44:55;10.17;;;6.30;;
4616;SDS011;2321;42.704;23.384;2023-08-01T13:47:23;12.70;;;7.10;;
4616;SDS011;2321;42.704;23.384;2023-08-01T13:49:51;63.57;;;24.63;;
4616;SDS011;2321;42.704;23.384;2023-08-01T13:52:18;17.30;;;8.70;;
4616;SDS011;2321;42.704;23.384;2023-08-01T13:54:44;16.70;;;9.23;;
4616;SDS011;2321;42.704;23.384;2023-08-01T13:57:11;183.53;;;60.33;;
4616;SDS011;2321;42.704;23.384;2023-08-01T13:59:38;179.20;;;61.53;;
4616;SDS011;2321;42.704;23.384;2023-08-01T14:02:05;8.83;;;4.63;;
4616;SDS011;2321;42.704;23.384;2023-08-01T14:04:32;10.63;;;6.63;;
4616;SDS011;2321;42.704;23.384;2023-08-01T14:07:00;8.50;;;5.63;;
4616;SDS011;2321;42.704;23.384;2023-08-01T14:09:28;15.23;;;8.00;;
4616;SDS011;2321;42.704;23.384;2023-08-01T14:11:57;161.53;;;52.13;;
4616;SDS011;2321;42.704;23.384;2023-08-01T14:14:24;55.50;;;18.37;;
4616;SDS011;2321;42.704;23.384;2023-08-01T14:16:57;7.30;;;5.77;;